createdAt,value
2022-08-03T00:01:51.932Z,50.12
2022-08-03T00:04:19.790Z,50.12
2022-08-03T00:06:46.771Z,50.21
2022-08-03T00:09:14.044Z,50.03
2022-08-03T00:11:41.338Z,50.24
2022-08-03T00:14:09.109Z,50.54
2022-08-03T00:16:36.261Z,50.51
2022-08-03T00:19:06.468Z,50.72
2022-08-03T00:21:33.728Z,50.88
2022-08-03T00:24:00.717Z,51.09
2022-08-03T00:26:28.191Z,51.91
2022-08-03T00:28:55.238Z,51.66
2022-08-03T00:31:40.198Z,51.95
2022-08-03T00:34:10.306Z,52.98
2022-08-03T00:36:39.526Z,52.21
2022-08-03T00:39:06.825Z,52.32
2022-08-03T00:41:34.009Z,52.50
2022-08-03T00:44:01.394Z,52.76
2022-08-03T00:46:28.368Z,52.58
2022-08-03T00:48:56.324Z,52.92
2022-08-03T00:51:24.138Z,52.64
2022-08-03T00:53:51.847Z,52.80
2022-08-03T00:56:19.685Z,52.69
2022-08-03T00:58:47.544Z,52.74
2022-08-03T01:01:15.275Z,52.71
2022-08-03T01:03:43.535Z,52.75
2022-08-03T01:06:18.914Z,52.73
2022-08-03T01:09:11.677Z,53.11
2022-08-03T01:12:00.690Z,53.02
2022-08-03T01:14:57.049Z,52.81
2022-08-03T01:17:40.347Z,53.04
2022-08-03T01:20:12.288Z,52.84
2022-08-03T01:23:20.119Z,53.43
2022-08-03T01:26:14.532Z,53.51
2022-08-03T01:29:04.666Z,53.69
2022-08-03T01:32:58.411Z,53.54
2022-08-03T01:34:48.873Z,53.13
2022-08-03T01:37:23.930Z,53.57
2022-08-03T01:39:52.164Z,53.17
2022-08-03T01:42:21.682Z,53.31
2022-08-03T01:44:51.439Z,53.37
2022-08-03T01:47:21.623Z,53.37
2022-08-03T01:49:51.060Z,53.36
2022-08-03T01:52:20.612Z,53.59
2022-08-03T01:54:51.706Z,53.62
2022-08-03T01:57:20.116Z,53.60
2022-08-03T01:59:49.420Z,53.78
2022-08-03T02:02:33.633Z,53.73
2022-08-03T02:05:05.989Z,54.06
2022-08-03T02:07:41.251Z,54.11
2022-08-03T02:10:11.814Z,54.48
2022-08-03T02:12:41.251Z,54.48
2022-08-03T02:15:09.533Z,54.92
2022-08-03T02:17:40.325Z,54.67
2022-08-03T02:20:11.519Z,54.90
2022-08-03T02:22:43.533Z,55.04
2022-08-03T02:25:13.890Z,54.88
2022-08-03T02:27:49.146Z,55.09
2022-08-03T02:30:16.835Z,54.83
2022-08-03T02:32:51.554Z,54.99
2022-08-03T02:35:20.955Z,54.84
2022-08-03T02:37:52.739Z,55.00
2022-08-03T02:40:24.764Z,54.94
2022-08-03T02:42:56.386Z,55.04
2022-08-03T02:45:26.264Z,55.08
2022-08-03T02:47:58.373Z,55.05
2022-08-03T02:50:28.787Z,54.95
2022-08-03T02:52:58.474Z,55.04
2022-08-03T02:55:27.646Z,54.95
2022-08-03T02:58:01.527Z,55.03
2022-08-03T03:00:35.107Z,55.15
2022-08-03T03:03:07.101Z,55.31
2022-08-03T03:05:55.016Z,55.33
2022-08-03T03:08:28.722Z,55.37
2022-08-03T03:11:01.116Z,55.47
2022-08-03T03:13:30.783Z,55.42
2022-08-03T03:16:04.084Z,55.90
2022-08-03T03:18:37.498Z,56.00
2022-08-03T03:21:07.985Z,55.68
2022-08-03T03:23:41.079Z,56.09
2022-08-03T03:26:09.165Z,55.71
2022-08-03T03:28:37.428Z,55.56
2022-08-03T03:31:09.128Z,55.60
2022-08-03T03:33:37.683Z,55.43
2022-08-03T03:36:06.630Z,55.46
2022-08-03T03:38:34.870Z,55.35
2022-08-03T03:41:02.371Z,55.49
2022-08-03T03:43:29.870Z,55.20
2022-08-03T03:45:58.737Z,55.11
2022-08-03T03:48:26.582Z,54.87
2022-08-03T03:50:53.861Z,54.86
2022-08-03T03:53:21.800Z,54.67
2022-08-03T03:55:57.928Z,54.72
2022-08-03T03:58:31.753Z,54.59
2022-08-03T04:00:59.271Z,54.49
2022-08-03T04:03:26.629Z,54.76
2022-08-03T04:06:12.429Z,54.91
2022-08-03T04:08:58.890Z,54.93
2022-08-03T04:11:31.987Z,54.94
2022-08-03T04:14:03.839Z,55.27
2022-08-03T04:16:35.236Z,55.20
2022-08-03T04:19:09.475Z,55.49
2022-08-03T04:21:44.876Z,55.44
2022-08-03T04:24:14.074Z,55.81
2022-08-03T04:26:43.441Z,55.28
2022-08-03T04:29:15.660Z,55.18
2022-08-03T04:31:45.533Z,55.05
2022-08-03T04:34:12.689Z,54.82
2022-08-03T04:36:51.586Z,54.69
2022-08-03T04:39:25.860Z,54.77
2022-08-03T04:42:08.149Z,54.37
2022-08-03T04:44:40.683Z,54.38
2022-08-03T04:47:09.154Z,54.47
2022-08-03T04:49:40.257Z,54.59
2022-08-03T04:52:08.803Z,54.29
2022-08-03T04:54:50.183Z,54.10
2022-08-03T04:57:22.857Z,54.20
2022-08-03T05:00:01.694Z,54.12
2022-08-03T05:02:31.368Z,54.00
2022-08-03T05:04:59.006Z,53.84
2022-08-03T05:07:35.787Z,53.79
2022-08-03T05:10:15.797Z,53.91
2022-08-03T05:12:49.405Z,53.61
2022-08-03T05:15:16.705Z,53.39
2022-08-03T05:17:44.118Z,53.49
2022-08-03T05:20:12.731Z,53.59
2022-08-03T05:22:39.730Z,53.59
2022-08-03T05:25:07.355Z,53.41
2022-08-03T05:27:34.905Z,53.15
2022-08-03T05:30:30.867Z,53.03
2022-08-03T05:32:50.243Z,52.62
2022-08-03T05:36:00.955Z,52.30
2022-08-03T05:38:06.347Z,51.82
2022-08-03T05:40:36.509Z,51.22
2022-08-03T05:43:04.236Z,50.43
2022-08-03T05:45:31.732Z,50.04
2022-08-03T05:47:58.695Z,49.99
2022-08-03T05:50:26.612Z,49.84
2022-08-03T05:52:57.949Z,49.23
2022-08-03T05:55:26.098Z,49.29
2022-08-03T05:57:56.743Z,48.75
2022-08-03T06:00:24.377Z,48.22
2022-08-03T06:02:52.705Z,47.79
2022-08-03T06:05:20.727Z,47.92
2022-08-03T06:07:47.731Z,47.77
2022-08-03T06:10:37.578Z,47.61
2022-08-03T06:13:02.940Z,46.51
2022-08-03T06:15:30.914Z,47.07
2022-08-03T06:18:01.731Z,46.51
2022-08-03T06:20:29.550Z,46.63
2022-08-03T06:23:00.852Z,46.55
2022-08-03T06:25:29.207Z,46.32
2022-08-03T06:27:56.666Z,45.93
2022-08-03T06:30:23.988Z,45.77
2022-08-03T06:32:51.982Z,45.71
2022-08-03T06:35:20.553Z,45.61
2022-08-03T06:37:50.050Z,45.33
2022-08-03T06:40:21.723Z,45.09
2022-08-03T06:42:52.190Z,45.25
2022-08-03T06:45:19.129Z,44.86
2022-08-03T06:47:46.825Z,45.13
2022-08-03T06:50:16.941Z,44.92
2022-08-03T06:52:45.524Z,45.08
2022-08-03T06:55:12.913Z,45.07
2022-08-03T06:57:40.268Z,44.56
2022-08-03T07:00:12.445Z,43.76
2022-08-03T07:02:42.234Z,43.96
2022-08-03T07:05:10.656Z,43.06
2022-08-03T07:07:38.620Z,42.97
2022-08-03T07:10:07.288Z,42.71
2022-08-03T07:12:35.981Z,42.57
2022-08-03T07:15:04.298Z,42.63
2022-08-03T07:17:34.474Z,42.55
2022-08-03T07:20:03.276Z,42.34
2022-08-03T07:22:30.538Z,42.20
2022-08-03T07:24:58.806Z,41.68
2022-08-03T07:27:27.232Z,41.84
2022-08-03T07:29:55.867Z,41.35
2022-08-03T07:32:23.924Z,41.26
2022-08-03T07:34:51.539Z,41.12
2022-08-03T07:37:19.195Z,40.55
2022-08-03T07:39:47.017Z,40.52
2022-08-03T07:42:14.352Z,40.26
2022-08-03T07:44:43.006Z,39.60
2022-08-03T07:47:10.079Z,39.51
2022-08-03T07:49:50.105Z,39.11
2022-08-03T07:52:35.484Z,38.48
2022-08-03T07:55:03.784Z,37.54
2022-08-03T07:57:30.975Z,37.89
2022-08-03T08:00:02.425Z,37.68
2022-08-03T08:02:40.123Z,37.73
2022-08-03T08:05:09.084Z,37.27
2022-08-03T08:07:36.042Z,36.78
2022-08-03T08:10:04.566Z,36.45
2022-08-03T08:12:32.230Z,36.18
2022-08-03T08:15:00.023Z,36.30
2022-08-03T08:17:27.516Z,36.25
2022-08-03T08:19:56.836Z,36.18
2022-08-03T08:22:30.068Z,35.83
2022-08-03T08:24:59.712Z,35.70
2022-08-03T08:27:28.493Z,35.43
2022-08-03T08:30:21.915Z,35.78
2022-08-03T08:32:50.411Z,35.47
2022-08-03T08:35:18.324Z,35.46
2022-08-03T08:37:50.829Z,35.17
2022-08-03T08:40:22.045Z,35.56
2022-08-03T08:42:59.035Z,34.96
2022-08-03T08:45:28.154Z,34.80
2022-08-03T08:48:01.032Z,34.26
2022-08-03T08:50:31.054Z,33.99
2022-08-03T08:53:02.452Z,33.67
2022-08-03T08:55:58.619Z,33.28
2022-08-03T08:58:23.183Z,33.09
2022-08-03T09:00:51.012Z,33.20
2022-08-03T09:03:29.759Z,33.26
2022-08-03T09:06:01.424Z,33.71
2022-08-03T09:08:33.149Z,33.19
2022-08-03T09:11:00.667Z,33.04
2022-08-03T09:13:29.462Z,32.92
2022-08-03T09:16:10.110Z,32.46
2022-08-03T09:18:37.687Z,32.92
2022-08-03T09:21:32.080Z,32.51
2022-08-03T09:24:04.406Z,32.09
2022-08-03T09:26:35.682Z,32.36
2022-08-03T09:29:14.983Z,32.33
2022-08-03T09:31:47.203Z,32.06
2022-08-03T09:34:17.715Z,31.69
2022-08-03T09:36:46.849Z,31.63
2022-08-03T09:39:41.161Z,31.89
2022-08-03T09:42:14.641Z,31.89
2022-08-03T09:44:49.360Z,31.66
2022-08-03T09:47:45.091Z,31.38
2022-08-03T09:50:13.096Z,31.38
2022-08-03T09:52:52.314Z,31.54
2022-08-03T09:56:34.126Z,31.41
2022-08-03T09:58:14.816Z,30.81
2022-08-03T10:01:06.255Z,29.72
2022-08-03T10:04:02.912Z,30.49
2022-08-03T10:06:28.844Z,29.97
2022-08-03T10:09:10.408Z,30.19
2022-08-03T10:11:42.129Z,29.95
2022-08-03T10:14:19.562Z,29.96
2022-08-03T10:16:48.376Z,30.05
2022-08-03T10:19:15.887Z,29.85
2022-08-03T10:21:51.171Z,30.00
2022-08-03T10:24:26.295Z,29.61
2022-08-03T10:27:03.255Z,30.07
2022-08-03T10:29:37.280Z,29.68
2022-08-03T10:32:14.952Z,29.53
2022-08-03T10:34:44.880Z,29.21
2022-08-03T10:37:15.538Z,29.25
2022-08-03T10:39:53.734Z,29.44
2022-08-03T10:42:27.282Z,29.20
2022-08-03T10:45:05.863Z,28.25
2022-08-03T10:47:35.793Z,28.51
2022-08-03T10:50:04.620Z,28.95
2022-08-03T10:52:39.527Z,28.38
2022-08-03T10:55:49.971Z,27.49
2022-08-03T10:58:57.105Z,26.60
2022-08-03T11:01:58.369Z,27.30
2022-08-03T11:04:27.347Z,27.16
2022-08-03T11:07:16.614Z,26.25
2022-08-03T11:09:50.204Z,26.26
2022-08-03T11:12:32.623Z,25.66
2022-08-03T11:15:04.253Z,25.92
2022-08-03T11:17:33.876Z,25.45
2022-08-03T11:20:14.679Z,25.21
2022-08-03T11:22:49.351Z,24.68
2022-08-03T11:25:53.447Z,24.98
2022-08-03T11:28:41.328Z,24.90
2022-08-03T11:34:13.550Z,24.06
2022-08-03T11:37:17.930Z,23.94
2022-08-03T11:39:48.077Z,24.05
2022-08-03T11:42:25.054Z,22.43
2022-08-03T11:44:54.642Z,23.39
2022-08-03T11:47:23.268Z,22.66
2022-08-03T11:49:52.126Z,22.53
2022-08-03T11:52:27.153Z,22.63
2022-08-03T11:54:56.701Z,22.16
2022-08-03T11:59:01.902Z,22.56
2022-08-03T12:00:40.580Z,21.22
2022-08-03T12:03:12.197Z,21.37
2022-08-03T12:05:51.054Z,21.47
2022-08-03T12:08:31.470Z,22.08
2022-08-03T12:11:01.404Z,23.01
2022-08-03T12:14:26.826Z,22.89
2022-08-03T12:16:29.759Z,23.63
2022-08-03T12:19:02.767Z,23.66
2022-08-03T12:21:30.728Z,23.14
2022-08-03T12:24:02.096Z,22.98
2022-08-03T12:26:42.521Z,22.80
2022-08-03T12:29:23.365Z,21.73
2022-08-03T12:31:51.115Z,21.64
2022-08-03T12:34:18.244Z,21.52
2022-08-03T12:36:57.358Z,20.13
2022-08-03T12:39:27.605Z,20.20
2022-08-03T12:41:55.560Z,20.01
2022-08-03T12:44:31.703Z,19.78
2022-08-03T12:47:00.221Z,19.57
2022-08-03T12:49:27.701Z,19.89
2022-08-03T12:52:00.804Z,19.25
2022-08-03T12:54:32.677Z,19.55
2022-08-03T12:57:04.718Z,19.22
2022-08-03T12:59:40.802Z,19.42
2022-08-03T13:02:20.832Z,18.65
2022-08-03T13:04:54.314Z,19.12
2022-08-03T13:07:23.721Z,19.12
2022-08-03T13:09:55.424Z,18.96
2022-08-03T13:12:25.488Z,18.33
2022-08-03T13:14:56.018Z,17.91
2022-08-03T13:17:23.499Z,17.60
2022-08-03T13:22:49.110Z,17.31
2022-08-03T13:25:16.822Z,17.27
2022-08-03T13:28:03.721Z,17.06
2022-08-03T13:30:31.981Z,18.03
2022-08-03T13:33:00.614Z,18.32
2022-08-03T13:35:28.248Z,18.45
2022-08-03T13:37:55.305Z,18.62
2022-08-03T13:40:29.934Z,18.81
2022-08-03T13:42:58.589Z,19.19
2022-08-03T13:45:27.612Z,19.69
2022-08-03T13:47:55.325Z,20.17
2022-08-03T13:50:22.559Z,20.61
2022-08-03T13:52:49.937Z,20.92
2022-08-03T13:55:16.955Z,21.18
2022-08-03T13:58:04.545Z,21.81
2022-08-03T14:00:32.042Z,22.31
2022-08-03T14:03:07.954Z,22.56
2022-08-03T14:05:44.986Z,22.42
2022-08-03T14:08:13.912Z,22.86
2022-08-03T14:10:44.090Z,22.64
2022-08-03T14:13:14.466Z,22.73
2022-08-03T14:15:50.171Z,22.50
2022-08-03T14:18:29.169Z,22.13
2022-08-03T14:21:07.405Z,21.68
2022-08-03T14:23:37.846Z,20.95
2022-08-03T14:26:09.656Z,20.16
2022-08-03T14:28:37.588Z,20.33
2022-08-03T14:31:08.509Z,20.32
2022-08-03T14:33:52.402Z,20.51
2022-08-03T14:36:19.377Z,20.24
2022-08-03T14:38:47.761Z,19.55
2022-08-03T14:41:19.998Z,18.84
2022-08-03T14:44:01.046Z,18.29
2022-08-03T14:46:29.566Z,17.83
2022-08-03T14:50:10.404Z,17.46
2022-08-03T14:51:51.582Z,16.70
2022-08-03T14:54:22.491Z,16.00
2022-08-03T14:56:49.677Z,16.84
2022-08-03T14:59:17.128Z,17.15
2022-08-03T15:02:02.651Z,17.82
2022-08-03T15:04:31.886Z,18.51
2022-08-03T15:06:58.824Z,18.80
2022-08-03T15:09:26.139Z,19.51
2022-08-03T15:11:53.578Z,19.75
2022-08-03T15:14:22.388Z,20.10
2022-08-03T15:17:00.677Z,20.57
2022-08-03T15:20:02.165Z,21.03
2022-08-03T15:22:19.069Z,21.33
2022-08-03T15:24:48.129Z,21.33
2022-08-03T15:27:15.062Z,21.04
2022-08-03T15:30:06.147Z,20.97
2022-08-03T15:32:30.293Z,21.27
2022-08-03T15:34:57.502Z,21.72
2022-08-03T15:37:25.934Z,21.70
2022-08-03T15:40:00.017Z,21.44
2022-08-03T15:42:33.165Z,19.77
2022-08-03T15:45:00.599Z,18.50
2022-08-03T15:47:27.982Z,18.01
2022-08-03T15:49:55.822Z,17.04
2022-08-03T15:52:23.604Z,16.75
2022-08-03T15:54:51.182Z,16.15
2022-08-03T15:57:18.361Z,15.15
2022-08-03T15:59:46.237Z,14.57
2022-08-03T16:02:13.208Z,14.50
2022-08-03T16:04:40.558Z,14.25
2022-08-03T16:07:08.334Z,14.13
2022-08-03T16:09:43.437Z,13.29
2022-08-03T16:12:15.540Z,13.67
2022-08-03T16:14:52.839Z,13.46
2022-08-03T16:17:22.935Z,13.47
2022-08-03T16:19:50.463Z,12.68
2022-08-03T16:22:22.892Z,12.00
2022-08-03T16:24:51.111Z,13.42
2022-08-03T16:27:37.028Z,13.96
2022-08-03T16:30:07.617Z,13.90
2022-08-03T16:32:34.973Z,13.81
2022-08-03T16:35:02.299Z,13.52
2022-08-03T16:37:38.706Z,13.30
2022-08-03T16:40:19.308Z,12.82
2022-08-03T16:42:47.790Z,13.15
2022-08-03T16:45:15.209Z,12.97
2022-08-03T16:47:42.719Z,13.28
2022-08-03T16:50:15.823Z,13.31
2022-08-03T16:52:48.421Z,13.32
2022-08-03T16:55:43.515Z,13.04
2022-08-03T16:58:05.677Z,13.25
2022-08-03T17:00:41.112Z,13.01
2022-08-03T17:03:18.823Z,13.22
2022-08-03T17:05:52.315Z,13.34
2022-08-03T17:08:26.692Z,13.15
2022-08-03T17:10:56.233Z,13.53
2022-08-03T17:13:39.532Z,14.05
2022-08-03T17:16:10.574Z,14.42
2022-08-03T17:18:58.510Z,15.13
2022-08-03T17:21:36.611Z,15.32
2022-08-03T17:24:32.156Z,15.83
2022-08-03T17:27:08.815Z,16.66
2022-08-03T17:29:45.115Z,17.56
2022-08-03T17:32:21.376Z,18.46
2022-08-03T17:34:50.012Z,19.46
2022-08-03T17:37:49.961Z,19.97
2022-08-03T17:40:10.587Z,20.44
2022-08-03T17:42:40.209Z,22.59
2022-08-03T17:45:15.905Z,24.28
2022-08-03T17:47:44.067Z,25.21
2022-08-03T17:50:24.954Z,25.97
2022-08-03T17:53:07.554Z,27.14
2022-08-03T17:55:55.893Z,27.52
2022-08-03T17:59:10.251Z,28.98
2022-08-03T18:02:22.251Z,28.80
2022-08-03T18:05:02.888Z,28.85
2022-08-03T18:07:59.348Z,29.81
2022-08-03T18:10:34.917Z,30.00
2022-08-03T18:13:19.670Z,29.89
2022-08-03T18:15:54.453Z,29.89
2022-08-03T18:18:32.655Z,29.84
2022-08-03T18:21:06.471Z,30.34
2022-08-03T18:23:40.061Z,30.39
2022-08-03T18:26:12.213Z,30.49
2022-08-03T18:28:41.602Z,30.67
2022-08-03T18:31:12.760Z,30.56
2022-08-03T18:34:19.721Z,31.08
2022-08-03T18:36:50.821Z,31.33
2022-08-03T18:39:22.191Z,31.52
2022-08-03T18:41:49.258Z,31.88
2022-08-03T18:44:53.249Z,31.82
2022-08-03T18:47:16.388Z,32.15
2022-08-03T18:49:59.339Z,32.49
2022-08-03T18:52:32.011Z,32.74
2022-08-03T18:55:20.844Z,32.67
2022-08-03T18:58:15.970Z,32.92
2022-08-03T19:00:59.287Z,32.78
2022-08-03T19:03:41.481Z,32.61
2022-08-03T19:06:20.300Z,32.75
2022-08-03T19:09:37.391Z,33.72
2022-08-03T19:12:31.027Z,33.64
2022-08-03T19:15:10.340Z,33.66
2022-08-03T19:17:50.026Z,33.21
2022-08-03T19:20:38.376Z,33.41
2022-08-03T19:23:06.873Z,33.63
2022-08-03T19:25:41.611Z,34.07
2022-08-03T19:28:09.369Z,33.92
2022-08-03T19:30:39.861Z,34.02
2022-08-03T19:33:12.539Z,34.08
2022-08-03T19:35:55.143Z,34.56
2022-08-03T19:38:29.788Z,34.41
2022-08-03T19:41:02.110Z,34.71
2022-08-03T19:43:53.391Z,35.20
2022-08-03T19:46:27.728Z,34.97
2022-08-03T19:49:15.462Z,35.26
2022-08-03T19:52:02.101Z,35.24
2022-08-03T19:54:45.457Z,35.58
2022-08-03T19:57:23.993Z,35.64
2022-08-03T19:59:54.058Z,35.57
2022-08-03T20:02:27.176Z,35.87
2022-08-03T20:04:57.622Z,36.05
2022-08-03T20:07:29.024Z,36.09
2022-08-03T20:10:01.497Z,36.29
2022-08-03T20:12:33.163Z,36.72
2022-08-03T20:15:07.659Z,36.66
2022-08-03T20:17:56.566Z,36.94
2022-08-03T20:20:26.876Z,37.33
2022-08-03T20:22:57.485Z,37.17
2022-08-03T20:25:38.280Z,37.58
2022-08-03T20:28:13.810Z,37.56
2022-08-03T20:30:47.267Z,37.96
2022-08-03T20:33:18.536Z,37.82
2022-08-03T20:35:49.300Z,38.26
2022-08-03T20:38:18.874Z,38.42
2022-08-03T20:40:47.340Z,38.21
2022-08-03T20:43:16.388Z,38.48
2022-08-03T20:46:01.176Z,38.78
2022-08-03T20:48:35.296Z,38.80
2022-08-03T20:51:05.335Z,39.10
2022-08-03T20:53:57.396Z,39.21
2022-08-03T20:56:35.741Z,39.06
2022-08-03T20:59:07.498Z,39.27
2022-08-03T21:01:44.379Z,39.41
2022-08-03T21:04:11.898Z,39.85
2022-08-03T21:06:54.119Z,40.45
2022-08-03T21:09:39.761Z,40.28
2022-08-03T21:12:15.507Z,40.31
2022-08-03T21:15:06.849Z,41.05
2022-08-03T21:17:40.940Z,40.63
2022-08-03T21:20:11.159Z,40.82
2022-08-03T21:22:39.698Z,41.02
2022-08-03T21:25:09.475Z,40.97
2022-08-03T21:27:39.051Z,41.05
2022-08-03T21:30:09.234Z,41.28
2022-08-03T21:32:40.719Z,41.41
2022-08-03T21:35:10.093Z,41.73
2022-08-03T21:37:39.125Z,41.92
2022-08-03T21:40:08.952Z,42.35
2022-08-03T21:42:35.936Z,42.84
2022-08-03T21:45:08.677Z,43.45
2022-08-03T21:47:38.444Z,43.23
2022-08-03T21:50:09.942Z,43.14
2022-08-03T21:52:44.665Z,43.51
2022-08-03T21:55:18.290Z,43.33
2022-08-03T21:57:52.563Z,43.23
2022-08-03T22:00:21.975Z,43.71
2022-08-03T22:02:57.385Z,43.76
2022-08-03T22:05:42.441Z,43.67
2022-08-03T22:08:13.745Z,44.14
2022-08-03T22:10:43.735Z,43.74
2022-08-03T22:13:13.298Z,44.03
2022-08-03T22:15:42.236Z,43.63
2022-08-03T22:18:10.506Z,43.83
2022-08-03T22:20:37.762Z,43.91
2022-08-03T22:23:07.531Z,44.23
2022-08-03T22:25:39.276Z,44.67
2022-08-03T22:28:10.632Z,44.75
2022-08-03T22:30:39.321Z,44.60
2022-08-03T22:33:11.243Z,44.67
2022-08-03T22:35:47.208Z,45.02
2022-08-03T22:38:19.173Z,44.65
2022-08-03T22:40:51.273Z,44.68
2022-08-03T22:43:26.168Z,45.24
2022-08-03T22:46:09.248Z,45.17
2022-08-03T22:48:41.301Z,44.99
2022-08-03T22:51:09.681Z,45.24
2022-08-03T22:53:38.855Z,45.17
2022-08-03T22:56:07.038Z,45.40
2022-08-03T22:58:34.506Z,45.40
2022-08-03T23:01:06.134Z,45.52
2022-08-03T23:03:58.933Z,45.55
2022-08-03T23:06:27.882Z,45.67
2022-08-03T23:08:55.772Z,46.19
2022-08-03T23:11:24.532Z,45.85
2022-08-03T23:13:54.776Z,45.85
2022-08-03T23:16:29.714Z,46.27
2022-08-03T23:18:59.935Z,46.17
2022-08-03T23:22:00.046Z,46.42
2022-08-03T23:24:31.173Z,46.47
2022-08-03T23:26:59.254Z,46.47
2022-08-03T23:29:30.493Z,47.01
2022-08-03T23:31:59.901Z,47.10
2022-08-03T23:34:47.295Z,47.08
2022-08-03T23:37:15.729Z,47.57
2022-08-03T23:39:45.563Z,48.01
2022-08-03T23:42:18.576Z,48.65
2022-08-03T23:44:46.638Z,48.39
2022-08-03T23:47:14.606Z,48.52
2022-08-03T23:49:42.306Z,48.55
2022-08-03T23:52:34.647Z,48.86
2022-08-03T23:55:02.658Z,48.61
2022-08-03T23:57:57.042Z,48.52
